Time;durP1;ratioP1;P1;durP2;ratioP2;P2;SDS_P1;SDS_P2;PMS_P1;PMS_P2;Temp;Humidity;BMP_temperature;BMP_pressure;BME280_temperature;BME280_humidity;BME280_pressure;Samples;Min_cycle;Max_cycle;Signal;HPM_P1;HPM_P2
2022/10/08 00:00:45;;;;;;;14.95;8.35;;;;;;;15.24;62.24;100408.50;7606516;32;38027;-72
2022/10/08 00:05:02;;;;;;;15.02;8.00;;;;;;;15.33;61.95;100408.69;7606147;32;40165;-73
2022/10/08 00:09:18;;;;;;;16.45;8.07;;;;;;;15.44;61.46;100406.69;7606557;32;40067;-72
2022/10/08 00:13:41;;;;;;;13.32;7.90;;;;;;;15.09;62.59;100398.47;7606314;32;38302;-73
2022/10/08 00:17:57;;;;;;;15.60;8.48;;;;;;;15.10;62.64;100396.53;7617733;32;37087;-72
2022/10/08 00:22:13;;;;;;;18.80;8.95;;;;;;;14.97;63.02;100385.13;7605945;32;40083;-72
2022/10/08 00:26:32;;;;;;;13.35;8.10;;;;;;;15.12;62.68;100386.91;7605544;32;40064;-72
2022/10/08 00:30:48;;;;;;;14.82;7.35;;;;;;;15.07;62.06;100391.62;7606562;32;36750;-72
2022/10/08 00:35:04;;;;;;;12.88;7.68;;;;;;;14.69;62.22;100394.09;7604786;32;38143;-72
2022/10/08 00:39:22;;;;;;;13.50;8.32;;;;;;;14.76;61.63;100384.44;7605519;32;39300;-73
2022/10/08 00:43:42;;;;;;;17.58;9.68;;;;;;;14.42;62.60;100387.09;7606091;32;40915;-73
2022/10/08 00:47:58;;;;;;;18.45;10.50;;;;;;;14.56;63.68;100368.91;7605844;32;37608;-72
2022/10/08 00:52:15;;;;;;;18.83;9.88;;;;;;;14.65;64.31;100372.69;7606001;32;36863;-72
2022/10/08 00:56:33;;;;;;;17.77;9.07;;;;;;;14.69;64.29;100374.88;7606043;32;40048;-72
2022/10/08 01:00:50;;;;;;;16.92;10.40;;;;;;;14.03;66.08;100372.19;7605664;32;39849;-72
2022/10/08 01:05:07;;;;;;;14.98;9.50;;;;;;;14.02;66.30;100373.31;7605625;32;38519;-72
2022/10/08 01:09:37;;;;;;;16.37;8.43;;;;;;;14.20;65.61;100373.78;7616690;32;37224;-72
2022/10/08 01:14:19;;;;;;;16.87;8.68;;;;;;;14.32;64.70;100365.22;7605761;32;39330;-73
2022/10/08 01:18:54;;;;;;;14.77;8.38;;;;;;;14.56;63.55;100357.94;7615240;32;40749;-72
2022/10/08 01:23:19;;;;;;;17.62;8.32;;;;;;;14.00;64.92;100356.28;7605653;32;37918;-73
2022/10/08 01:27:42;;;;;;;19.98;8.25;;;;;;;14.08;64.82;100357.66;7605746;32;37356;-73
2022/10/08 01:32:06;;;;;;;13.10;7.65;;;;;;;13.80;64.95;100357.22;7605630;32;39442;-72
2022/10/08 01:36:23;;;;;;;12.85;8.27;;;;;;;14.12;63.70;100357.91;7605245;32;40880;-72
2022/10/08 01:40:40;;;;;;;17.80;8.18;;;;;;;13.95;63.69;100348.09;7605315;32;38016;-72
2022/10/08 01:45:00;;;;;;;14.50;9.30;;;;;;;14.36;62.16;100344.34;7616027;32;37145;-72
2022/10/08 01:49:21;;;;;;;14.95;9.18;;;;;;;14.08;63.15;100343.94;7604448;32;39271;-73
2022/10/08 01:53:39;;;;;;;17.92;9.13;;;;;;;13.73;64.43;100345.72;7615980;32;39945;-73
2022/10/08 01:57:58;;;;;;;17.17;10.30;;;;;;;13.81;64.00;100336.91;7615799;32;37800;-72
2022/10/08 02:02:19;;;;;;;12.95;9.10;;;;;;;13.81;65.13;100325.94;7615466;32;37383;-72
2022/10/08 02:06:38;;;;;;;17.87;9.38;;;;;;;13.41;67.26;100325.00;7614938;32;39458;-72
2022/10/08 02:10:54;;;;;;;12.55;7.87;;;;;;;13.31;66.96;100330.47;7604744;32;39967;-72
2022/10/08 02:15:49;;;;;;;20.58;9.90;;;;;;;13.73;65.24;100322.97;7604438;32;38932;-72
2022/10/08 02:20:21;;;;;;;16.33;9.55;;;;;;;13.52;64.95;100323.88;7603786;32;37026;-72
2022/10/08 02:24:42;;;;;;;17.05;8.95;;;;;;;13.43;66.04;100322.78;7614264;32;40223;-72
2022/10/08 02:29:09;;;;;;;18.17;9.93;;;;;;;13.45;65.98;100326.09;7615116;32;39752;-72
2022/10/08 02:33:43;;;;;;;14.05;9.30;;;;;;;13.38;66.08;100333.75;7614559;32;38863;-72
2022/10/08 02:38:04;;;;;;;14.45;8.93;;;;;;;13.55;66.76;100318.94;7604227;32;37248;-72
2022/10/08 02:42:23;;;;;;;17.17;9.52;;;;;;;13.55;65.27;100306.06;7614879;32;40163;-72
2022/10/08 02:46:42;;;;;;;18.87;10.00;;;;;;;13.61;64.94;100315.09;7614854;32;40677;-72
2022/10/08 02:51:06;;;;;;;15.23;8.75;;;;;;;13.57;65.47;100323.03;7614317;32;38689;-72
2022/10/08 02:55:29;;;;;;;17.30;10.15;;;;;;;13.52;64.82;100318.41;7614943;32;36986;-72
2022/10/08 02:59:45;;;;;;;20.27;10.80;;;;;;;13.62;64.59;100311.25;7616395;32;40099;-72
2022/10/08 03:04:09;;;;;;;16.45;9.55;;;;;;;13.50;64.52;100315.13;7617837;32;40747;-72
2022/10/08 03:08:25;;;;;;;17.30;10.07;;;;;;;13.48;64.38;100319.22;7618101;32;38915;-73
2022/10/08 03:12:41;;;;;;;17.52;10.07;;;;;;;13.19;64.43;100313.50;7606284;32;38031;-72
2022/10/08 03:16:57;;;;;;;16.42;9.70;;;;;;;13.31;63.71;100311.28;7617925;32;39482;-71
2022/10/08 03:21:13;;;;;;;21.95;10.35;;;;;;;13.15;64.35;100313.25;7606574;32;40803;-72
2022/10/08 03:25:29;;;;;;;16.58;10.18;;;;;;;13.37;63.54;100310.22;7606826;32;38717;-72
2022/10/08 03:29:46;;;;;;;21.17;10.75;;;;;;;13.17;64.06;100310.22;7607086;32;38158;-73
2022/10/08 03:34:02;;;;;;;15.55;9.45;;;;;;;12.81;65.58;100305.59;7606661;32;39429;-72
2022/10/08 03:38:18;;;;;;;17.77;9.43;;;;;;;12.93;65.28;100300.66;7618034;32;39975;-72
2022/10/08 03:42:34;;;;;;;15.23;8.63;;;;;;;13.22;64.26;100297.34;7606530;32;38795;-72
2022/10/08 03:46:50;;;;;;;115.60;12.50;;;;;;;13.33;63.93;100299.00;7618008;32;37973;-72
2022/10/08 03:51:09;;;;;;;17.62;9.95;;;;;;;13.18;65.08;100309.13;7606413;32;39384;-72
2022/10/08 03:55:26;;;;;;;27.55;10.85;;;;;;;12.92;65.67;100300.97;7606741;32;39901;-72
2022/10/08 03:59:42;;;;;;;15.85;9.43;;;;;;;12.87;65.48;100295.50;7605926;32;38680;-72
2022/10/08 04:03:58;;;;;;;47.53;10.52;;;;;;;13.07;64.66;100298.22;7606446;32;37289;-72
2022/10/08 04:08:14;;;;;;;109.75;12.35;;;;;;;12.85;65.45;100289.44;7606381;32;40168;-72
2022/10/08 04:12:30;;;;;;;12.00;7.37;;;;;;;12.81;65.68;100293.84;7605906;32;40918;-72
2022/10/08 04:16:46;;;;;;;14.43;8.20;;;;;;;12.80;65.26;100290.28;7606437;32;38718;-72
2022/10/08 04:21:06;;;;;;;16.58;7.72;;;;;;;12.80;64.38;100292.19;7606245;32;36829;-73
2022/10/08 04:25:22;;;;;;;16.42;9.02;;;;;;;12.76;63.99;100289.19;7606440;32;39434;-72
2022/10/08 04:29:38;;;;;;;16.92;9.50;;;;;;;12.66;64.08;100289.19;7606040;32;40179;-72
2022/10/08 04:33:55;;;;;;;15.02;9.70;;;;;;;12.62;64.17;100294.37;7606242;32;38154;-72
2022/10/08 04:38:11;;;;;;;17.27;9.25;;;;;;;12.70;63.92;100290.31;7605932;32;37255;-73
2022/10/08 04:42:27;;;;;;;204.30;13.05;;;;;;;12.39;64.54;100293.81;7605280;32;39499;-73
2022/10/08 04:46:43;;;;;;;16.27;8.70;;;;;;;12.23;66.55;100291.34;7606127;32;40896;-72
2022/10/08 04:51:01;;;;;;;16.85;9.25;;;;;;;12.56;65.00;100290.03;7605754;32;38128;-72
2022/10/08 04:55:23;;;;;;;16.77;9.15;;;;;;;12.47;65.22;100294.37;7605540;32;37336;-71
2022/10/08 04:59:39;;;;;;;19.55;9.57;;;;;;;12.70;64.44;100288.37;7606060;32;40988;-73
2022/10/08 05:04:15;;;;;;;15.32;9.05;;;;;;;12.53;64.96;100301.50;7605368;32;40303;-72
2022/10/08 05:08:32;;;;;;;17.50;8.88;;;;;;;12.30;65.57;100298.19;7606038;32;37913;-73
2022/10/08 05:12:48;;;;;;;20.48;9.63;;;;;;;12.57;64.15;100302.59;7605342;32;37905;-72
2022/10/08 05:17:04;;;;;;;17.08;9.50;;;;;;;12.20;64.60;100301.72;7605352;32;39103;-74
2022/10/08 05:21:23;;;;;;;18.65;11.00;;;;;;;12.75;63.01;100302.06;7604911;32;40634;-72
2022/10/08 05:25:39;;;;;;;19.85;11.43;;;;;;;12.67;63.53;100302.59;7605199;32;37852;-72
2022/10/08 05:29:55;;;;;;;18.85;11.12;;;;;;;12.37;65.35;100308.88;7604485;32;37240;-72
2022/10/08 05:34:14;;;;;;;18.50;11.25;;;;;;;12.73;64.73;100312.47;7603983;32;39285;-72
2022/10/08 05:38:31;;;;;;;18.80;11.80;;;;;;;12.59;65.55;100317.66;7605293;32;40565;-73
2022/10/08 05:42:51;;;;;;;29.25;12.55;;;;;;;12.80;64.77;100312.19;7605285;32;38853;-72
2022/10/08 05:47:07;;;;;;;131.35;14.60;;;;;;;12.67;65.25;100319.00;7603758;32;38212;-73
2022/10/08 05:51:23;;;;;;;58.50;13.10;;;;;;;12.81;65.26;100324.75;7603191;32;40138;-73
2022/10/08 05:55:39;;;;;;;186.77;15.82;;;;;;;12.66;65.90;100325.59;7605078;32;39949;-73
2022/10/08 05:59:55;;;;;;;195.40;17.45;;;;;;;12.61;66.61;100324.75;7604593;32;37877;-72
2022/10/08 06:04:12;;;;;;;423.02;24.25;;;;;;;12.42;67.45;100332.66;7604297;32;38000;-72
2022/10/08 06:08:28;;;;;;;166.93;15.30;;;;;;;12.66;66.49;100342.00;7603736;32;40154;-72
2022/10/08 06:12:44;;;;;;;22.52;12.05;;;;;;;12.82;66.03;100337.34;7604697;32;40048;-72
2022/10/08 06:17:00;;;;;;;20.60;12.35;;;;;;;12.82;66.59;100351.03;7601288;32;38051;-72
2022/10/08 06:21:19;;;;;;;23.75;11.55;;;;;;;12.98;67.05;100351.03;7602382;32;37461;-72
2022/10/08 06:25:36;;;;;;;19.00;11.85;;;;;;;12.81;67.90;100349.37;7603223;32;39335;-79
2022/10/08 06:29:52;;;;;;;20.50;12.27;;;;;;;13.36;68.57;100348.84;7603098;32;39915;-78
2022/10/08 06:34:08;;;;;;;19.33;11.40;;;;;;;13.90;69.24;100351.69;7605520;32;38117;-72
2022/10/08 06:38:24;;;;;;;16.98;11.30;;;;;;;14.43;66.92;100353.88;7607656;32;36889;-72
2022/10/08 06:42:40;;;;;;;21.85;12.82;;;;;;;14.48;65.12;100349.47;7607578;32;39880;-72
2022/10/08 06:46:56;;;;;;;20.33;12.32;;;;;;;14.68;64.38;100345.78;7607795;32;39621;-72
2022/10/08 06:51:16;;;;;;;21.23;13.20;;;;;;;14.27;64.83;100355.09;7607486;32;37862;-72
2022/10/08 06:55:32;;;;;;;20.62;12.43;;;;;;;14.10;66.20;100355.44;7607614;32;37299;-71
2022/10/08 06:59:49;;;;;;;24.33;13.18;;;;;;;14.56;65.39;100357.12;7607561;32;39013;-71
2022/10/08 07:04:05;;;;;;;21.40;12.90;;;;;;;14.87;64.78;100363.22;7607037;32;39746;-73
2022/10/08 07:08:22;;;;;;;21.40;13.18;;;;;;;14.51;66.09;100360.69;7607502;32;38854;-71
2022/10/08 07:12:38;;;;;;;24.00;13.82;;;;;;;14.70;64.44;100368.31;7607423;32;37112;-71
2022/10/08 07:16:54;;;;;;;21.85;13.38;;;;;;;13.84;66.50;100369.25;7607259;32;39234;-72
2022/10/08 07:21:12;;;;;;;21.92;12.85;;;;;;;14.24;66.19;100367.41;7606620;32;39992;-72
2022/10/08 07:25:28;;;;;;;22.77;12.77;;;;;;;14.07;66.73;100364.22;7605017;32;38094;-72
2022/10/08 07:29:44;;;;;;;19.98;12.63;;;;;;;14.38;66.74;100367.62;7606113;32;37635;-71
2022/10/08 07:34:02;;;;;;;17.48;12.05;;;;;;;14.97;64.69;100371.38;7606910;32;40138;-72
2022/10/08 07:38:18;;;;;;;25.02;12.70;;;;;;;15.14;64.46;100359.16;7606708;32;39000;-71
2022/10/08 07:42:35;;;;;;;19.33;12.35;;;;;;;15.38;64.36;100359.19;7606430;32;37820;-71
2022/10/08 07:46:52;;;;;;;21.30;11.85;;;;;;;16.05;62.15;100359.28;7606212;32;37477;-72
2022/10/08 07:51:14;;;;;;;18.20;11.63;;;;;;;16.25;62.21;100346.41;7606691;32;39316;-71
2022/10/08 07:55:30;;;;;;;17.42;10.15;;;;;;;16.61;61.48;100343.09;7606773;32;40296;-73
2022/10/08 07:59:46;;;;;;;21.83;11.30;;;;;;;17.13;59.57;100349.47;7606660;32;38874;-74
2022/10/08 08:04:05;;;;;;;16.92;10.20;;;;;;;17.39;56.51;100338.78;7606409;32;37915;-73
2022/10/08 08:08:24;;;;;;;17.08;10.45;;;;;;;17.67;56.39;100341.56;7606636;32;40213;-73
2022/10/08 08:12:40;;;;;;;21.52;9.48;;;;;;;17.63;56.08;100340.56;7606567;32;39917;-74
2022/10/08 08:16:56;;;;;;;16.25;9.80;;;;;;;17.99;55.17;100334.34;7606476;32;38004;-73
2022/10/08 08:21:18;;;;;;;14.57;9.52;;;;;;;17.95;54.93;100330.56;7606551;32;37919;-73
2022/10/08 08:25:34;;;;;;;16.92;8.52;;;;;;;18.32;53.54;100329.47;7606357;32;39438;-73
2022/10/08 08:29:50;;;;;;;13.98;8.90;;;;;;;18.43;54.22;100329.25;7606213;32;40041;-72
2022/10/08 08:34:08;;;;;;;14.50;8.70;;;;;;;18.89;52.65;100331.75;7606224;32;38174;-72
2022/10/08 08:38:24;;;;;;;14.80;8.75;;;;;;;18.69;53.03;100337.75;7606369;32;38572;-72
2022/10/08 08:42:55;;;;;;;12.37;7.68;;;;;;;19.16;51.03;100341.00;7606041;32;39334;-73
2022/10/08 08:47:21;;;;;;;14.87;8.13;;;;;;;19.49;50.96;100336.00;7616545;32;40029;-73
2022/10/08 08:51:37;;;;;;;13.68;8.10;;;;;;;19.48;50.47;100342.63;7606055;32;38090;-73
2022/10/08 08:55:55;;;;;;;14.35;7.87;;;;;;;19.85;49.85;100329.47;7605113;32;37350;-73
2022/10/08 09:00:17;;;;;;;15.02;6.57;;;;;;;20.19;47.91;100322.37;7606046;32;40755;-73
2022/10/08 09:04:46;;;;;;;13.57;7.37;;;;;;;20.62;47.52;100316.06;7616666;32;40087;-72
2022/10/08 09:09:35;;;;;;;14.00;6.97;;;;;;;20.51;47.18;100311.97;7616661;32;38492;-73
2022/10/08 09:14:04;;;;;;;13.70;6.68;;;;;;;21.10;47.42;100307.87;7615140;32;38191;-73
2022/10/08 09:18:21;;;;;;;13.50;6.50;;;;;;;21.46;44.95;100301.06;7606314;32;37204;-73
2022/10/08 09:22:39;;;;;;;15.35;6.50;;;;;;;21.74;43.91;100299.47;7616832;32;39932;-72
2022/10/08 09:26:55;;;;;;;12.32;5.45;;;;;;;22.03;43.81;100302.56;7605742;32;38097;-73
2022/10/08 09:31:37;;;;;;;18.08;5.12;;;;;;;22.27;43.25;100293.59;7616645;32;37887;-72
2022/10/08 09:35:54;;;;;;;13.02;5.70;;;;;;;22.03;42.83;100294.25;7614831;32;39429;-72
2022/10/08 09:40:20;;;;;;;9.27;4.90;;;;;;;22.48;41.58;100291.63;7616573;32;40834;-72
2022/10/08 09:44:45;;;;;;;8.68;5.30;;;;;;;22.86;40.92;100290.63;7605462;32;38841;-73
2022/10/08 09:49:25;;;;;;;8.70;4.90;;;;;;;22.99;40.83;100280.34;7605511;32;37208;-72
2022/10/08 09:53:53;;;;;;;10.40;5.15;;;;;;;23.13;39.37;100277.28;7603230;32;39289;-72
2022/10/08 09:58:14;;;;;;;9.57;5.05;;;;;;;23.47;38.85;100280.78;7605028;32;40062;-73
2022/10/08 10:02:37;;;;;;;8.68;4.85;;;;;;;23.94;38.32;100268.38;7615486;32;38824;-73
2022/10/08 10:06:54;;;;;;;9.93;5.50;;;;;;;23.84;38.40;100266.91;7604892;32;36839;-72
2022/10/08 10:11:19;;;;;;;7.62;4.53;;;;;;;23.98;38.31;100260.97;7615966;32;40255;-73
2022/10/08 10:15:44;;;;;;;9.60;5.03;;;;;;;24.40;37.34;100249.44;7615263;32;40032;-72
2022/10/08 10:20:04;;;;;;;8.90;4.60;;;;;;;24.78;37.35;100244.53;7615157;32;38699;-72
2022/10/08 10:24:26;;;;;;;8.65;5.12;;;;;;;25.31;36.64;100239.56;7615486;32;37826;-73
2022/10/08 10:28:53;;;;;;;8.88;5.12;;;;;;;25.52;35.61;100235.69;7604610;32;39394;-71
2022/10/08 10:33:20;;;;;;;11.18;4.70;;;;;;;25.88;34.93;100231.72;7604413;32;39915;-72
2022/10/08 10:37:43;;;;;;;11.40;4.20;;;;;;;25.93;35.19;100225.03;7614979;32;37997;-72
2022/10/08 10:42:18;;;;;;;10.43;4.20;;;;;;;26.34;34.88;100220.75;7614817;32;38188;-73
2022/10/08 10:46:43;;;;;;;10.45;3.97;;;;;;;26.37;33.60;100210.81;7604150;32;39845;-72
2022/10/08 10:51:14;;;;;;;10.18;4.07;;;;;;;26.61;33.43;100201.28;7604068;32;40679;-73
2022/10/08 10:55:59;;;;;;;9.70;4.30;;;;;;;26.83;33.27;100190.53;7613689;32;38794;-72
2022/10/08 11:00:42;;;;;;;6.87;3.83;;;;;;;27.20;32.70;100192.75;7603990;32;37035;-72
2022/10/08 11:05:19;;;;;;;11.63;4.30;;;;;;;27.27;32.30;100187.25;7603487;32;40105;-72
2022/10/08 11:09:47;;;;;;;6.65;3.72;;;;;;;27.45;31.81;100177.19;7611254;32;40049;-72
2022/10/08 11:14:34;;;;;;;8.35;4.07;;;;;;;27.50;32.54;100178.84;7603487;32;38047;-72
2022/10/08 11:18:59;;;;;;;10.30;4.32;;;;;;;27.76;32.28;100177.22;7603340;32;37550;-72
2022/10/08 11:23:42;;;;;;;7.80;3.70;;;;;;;27.30;33.05;100164.16;7618118;32;39366;-73
2022/10/08 11:28:15;;;;;;;9.35;4.05;;;;;;;27.69;32.33;100158.31;7606539;32;40209;-73
2022/10/08 11:32:32;;;;;;;6.45;3.75;;;;;;;27.78;31.77;100150.44;7617694;32;38826;-73
2022/10/08 11:37:20;;;;;;;7.82;3.72;;;;;;;28.06;30.43;100140.78;7617853;32;38006;-74
2022/10/08 11:41:44;;;;;;;8.15;3.50;;;;;;;27.89;30.34;100140.19;7606461;32;39445;-73
2022/10/08 11:46:35;;;;;;;7.43;3.60;;;;;;;28.52;29.12;100142.50;7606405;32;38564;-74
2022/10/08 11:50:51;;;;;;;7.75;3.42;;;;;;;27.91;29.60;100129.41;7596246;32;37830;-73
2022/10/08 11:55:20;;;;;;;20.30;11.35;;;;;;;27.79;29.75;100110.03;7604587;32;37041;-73
2022/10/08 11:59:42;;;;;;;7.57;4.57;;;;;;;27.17;30.62;100116.75;7616468;32;39234;-73
2022/10/08 12:04:08;;;;;;;7.78;3.83;;;;;;;27.40;30.83;100117.91;7605846;32;39849;-73
2022/10/08 12:09:02;;;;;;;14.43;4.47;;;;;;;27.49;29.25;100107.22;7616581;32;38047;-73
2022/10/08 12:13:27;;;;;;;6.57;3.90;;;;;;;27.15;30.81;100107.94;7606614;32;37041;-72
2022/10/08 12:18:04;;;;;;;9.02;4.30;;;;;;;26.31;32.22;100098.53;7606701;32;39591;-73
2022/10/08 12:22:41;;;;;;;9.20;3.90;;;;;;;27.10;32.91;100099.06;7606486;32;40160;-73
2022/10/08 12:27:16;;;;;;;7.95;4.15;;;;;;;27.25;30.57;100084.09;7605551;32;38674;-72
2022/10/08 12:31:38;;;;;;;7.90;3.70;;;;;;;27.49;30.89;100070.84;7605657;32;37371;-72
2022/10/08 12:35:54;;;;;;;;;;;;;;;27.65;30.02;100068.66;7616926;32;39942;-73
2022/10/08 12:40:30;;;;;;;11.75;4.20;;;;;;;27.34;29.83;100070.66;7605307;32;40184;-73
2022/10/08 12:45:19;;;;;;;10.57;4.20;;;;;;;27.38;29.95;100055.91;7601267;32;38805;-73
2022/10/08 12:49:52;;;;;;;8.98;3.72;;;;;;;26.93;31.39;100070.44;7602691;32;35572;-73
2022/10/08 12:54:26;;;;;;;6.03;3.72;;;;;;;27.44;31.40;100058.00;7614851;32;39075;-74
2022/10/08 12:58:44;;;;;;;23.17;9.70;;;;;;;26.80;32.55;100063.44;7605159;32;40817;-74
2022/10/08 13:03:04;;;;;;;7.55;4.18;;;;;;;27.33;31.47;100062.62;7602389;32;40221;-74
2022/10/08 13:07:31;;;;;;;14.77;6.18;;;;;;;27.12;29.67;100060.31;7603570;32;37123;-74
2022/10/08 13:11:47;;;;;;;15.90;6.57;;;;;;;27.03;30.95;100066.19;7604129;32;40160;-73
2022/10/08 13:16:15;;;;;;;10.63;3.60;;;;;;;27.14;31.34;100057.94;7605513;32;39820;-74
2022/10/08 13:20:31;;;;;;;8.30;3.15;;;;;;;26.81;31.73;100069.84;7605922;32;38082;-74
2022/10/08 13:24:47;;;;;;;5.70;3.05;;;;;;;26.91;31.69;100066.41;7616872;32;37126;-74
2022/10/08 13:29:21;;;;;;;6.37;3.28;;;;;;;27.17;31.36;100068.38;7605925;32;39441;-75
2022/10/08 13:33:37;;;;;;;10.35;3.33;;;;;;;26.97;31.08;100062.91;7605570;32;39906;-74
2022/10/08 13:37:54;;;;;;;7.85;3.22;;;;;;;27.12;30.56;100058.31;7605434;32;38845;-74
2022/10/08 13:42:14;;;;;;;7.95;3.12;;;;;;;26.60;32.30;100060.69;7605039;32;37844;-75
2022/10/08 13:46:30;;;;;;;9.98;2.97;;;;;;;26.78;31.65;100068.59;7616365;32;40083;-74
2022/10/08 13:50:49;;;;;;;9.35;3.05;;;;;;;26.30;32.27;100065.34;7605464;32;39634;-74
2022/10/08 13:55:14;;;;;;;6.15;3.50;;;;;;;26.37;32.29;100051.50;7605437;32;37118;-75
2022/10/08 13:59:31;;;;;;;7.35;3.10;;;;;;;26.44;32.77;100048.84;7605444;32;36693;-74
2022/10/08 14:03:47;;;;;;;8.07;3.22;;;;;;;26.41;32.11;100056.00;7605027;32;39359;-74
2022/10/08 14:08:06;;;;;;;6.70;3.20;;;;;;;26.52;30.21;100047.78;7604665;32;39815;-74
2022/10/08 14:12:28;;;;;;;6.62;3.33;;;;;;;25.67;32.51;100040.22;7604925;32;38246;-75
2022/10/08 14:16:45;;;;;;;7.28;3.45;;;;;;;25.74;30.93;100044.34;7605015;32;36807;-74
2022/10/08 14:21:01;;;;;;;10.85;3.30;;;;;;;26.29;30.81;100028.22;7605053;32;39369;-75
2022/10/08 14:25:20;;;;;;;7.40;3.40;;;;;;;26.60;31.29;100031.94;7604555;32;40793;-74
2022/10/08 14:29:36;;;;;;;10.13;3.53;;;;;;;26.16;32.20;100024.00;7604606;32;37897;-74
2022/10/08 14:33:52;;;;;;;8.68;3.37;;;;;;;26.65;32.60;100023.28;7604547;32;37181;-74
2022/10/08 14:38:08;;;;;;;7.28;3.90;;;;;;;26.65;31.67;100016.84;7604364;32;39987;-74
2022/10/08 14:42:24;;;;;;;9.52;4.03;;;;;;;25.22;33.19;100027.69;7604322;32;40577;-73
2022/10/08 14:46:41;;;;;;;11.85;5.10;;;;;;;24.86;33.62;100026.09;7604098;32;37777;-75
2022/10/08 14:50:58;;;;;;;19.58;8.63;;;;;;;25.05;35.46;100020.53;7604118;32;37148;-74
2022/10/08 14:55:14;;;;;;;16.00;8.65;;;;;;;25.36;33.42;100027.22;7605209;32;40101;-73
2022/10/08 14:59:30;;;;;;;13.50;5.57;;;;;;;24.80;36.46;100030.31;7607539;32;40819;-73
2022/10/08 15:03:51;;;;;;;10.07;5.97;;;;;;;24.88;36.64;100018.16;7607152;32;38789;-75
2022/10/08 15:08:07;;;;;;;12.32;4.37;;;;;;;25.94;35.05;100022.78;7607459;32;37101;-74
2022/10/08 15:12:23;;;;;;;8.50;4.35;;;;;;;26.85;32.10;100014.75;7607408;32;39411;-74
2022/10/08 15:16:40;;;;;;;17.50;4.85;;;;;;;26.05;32.74;100019.03;7607831;32;40013;-74
2022/10/08 15:20:59;;;;;;;7.87;4.30;;;;;;;25.40;35.05;100019.72;7607171;32;38540;-74
2022/10/08 15:25:15;;;;;;;9.95;3.62;;;;;;;25.16;35.74;100017.19;7607301;32;36153;-74
2022/10/08 15:29:31;;;;;;;9.73;3.60;;;;;;;24.45;36.96;100028.25;7607421;32;39439;-74
2022/10/08 15:33:49;;;;;;;10.80;3.80;;;;;;;24.36;37.60;100026.47;7607105;32;40718;-74
2022/10/08 15:38:05;;;;;;;16.08;3.97;;;;;;;23.67;38.79;100027.78;7606925;32;38118;-74
2022/10/08 15:42:21;;;;;;;6.87;3.85;;;;;;;23.44;39.48;100036.69;7606886;32;37278;-74
2022/10/08 15:46:37;;;;;;;17.85;4.60;;;;;;;22.83;41.23;100030.03;7606851;32;40084;-73
2022/10/08 15:50:57;;;;;;;8.52;3.45;;;;;;;23.09;40.45;100031.66;7606915;32;39915;-73
2022/10/08 15:55:14;;;;;;;10.77;3.70;;;;;;;22.56;41.13;100033.50;7606586;32;38692;-75
2022/10/08 15:59:31;;;;;;;8.90;4.35;;;;;;;22.20;42.36;100041.44;7606745;32;37360;-75
2022/10/08 16:03:49;;;;;;;10.27;4.00;;;;;;;21.66;43.69;100049.81;7606346;32;39242;-74
2022/10/08 16:08:08;;;;;;;16.52;7.40;;;;;;;21.77;42.52;100045.47;7606024;32;39996;-74
2022/10/08 16:12:24;;;;;;;11.85;4.53;;;;;;;21.74;42.54;100052.50;7606598;32;37951;-75
2022/10/08 16:16:41;;;;;;;12.60;5.60;;;;;;;21.19;44.61;100061.91;7606555;32;38030;-74
2022/10/08 16:21:01;;;;;;;10.18;5.60;;;;;;;20.90;43.78;100055.22;7606688;32;40072;-74
2022/10/08 16:25:17;;;;;;;16.52;7.03;;;;;;;21.11;43.69;100068.31;7606411;32;40791;-74
2022/10/08 16:29:33;;;;;;;13.68;6.62;;;;;;;20.54;46.09;100066.78;7606008;32;38679;-73
2022/10/08 16:33:55;;;;;;;11.10;5.12;;;;;;;20.38;46.29;100069.31;7606368;32;37372;-73
2022/10/08 16:38:11;;;;;;;16.55;5.80;;;;;;;20.26;46.73;100078.28;7606505;32;40088;-74
2022/10/08 16:42:27;;;;;;;10.27;5.12;;;;;;;20.14;47.26;100076.19;7606208;32;40793;-73
2022/10/08 16:46:47;;;;;;;16.23;6.37;;;;;;;20.22;47.33;100078.13;7606134;32;37929;-73
2022/10/08 16:51:03;;;;;;;13.60;6.68;;;;;;;19.85;48.39;100085.19;7606340;32;37251;-74
2022/10/08 16:55:19;;;;;;;10.00;4.97;;;;;;;19.39;49.82;100090.22;7606344;32;39299;-73
2022/10/08 16:59:35;;;;;;;7.80;4.07;;;;;;;19.37;49.75;100100.78;7606177;32;40828;-73
2022/10/08 17:03:52;;;;;;;7.15;4.25;;;;;;;19.25;50.06;100100.63;7605990;32;38714;-74
2022/10/08 17:08:08;;;;;;;8.02;4.87;;;;;;;19.09;50.20;100106.59;7605991;32;37122;-74
2022/10/08 17:12:24;;;;;;;7.72;4.82;;;;;;;18.99;50.54;100112.41;7605868;32;40264;-74
2022/10/08 17:16:42;;;;;;;9.40;4.70;;;;;;;19.01;50.25;100117.63;7605253;32;39841;-74
2022/10/08 17:20:59;;;;;;;12.30;5.05;;;;;;;18.63;51.55;100118.91;7605992;32;38469;-74
2022/10/08 17:25:16;;;;;;;10.30;4.60;;;;;;;18.52;51.78;100112.03;7605899;32;37095;-73
2022/10/08 17:29:32;;;;;;;12.60;5.30;;;;;;;18.55;51.28;100122.44;7605873;32;39372;-73
2022/10/08 17:33:48;;;;;;;8.68;4.87;;;;;;;18.33;51.86;100126.88;7605741;32;40019;-74
2022/10/08 17:38:04;;;;;;;10.23;5.20;;;;;;;18.15;52.10;100130.66;7605568;32;38891;-74
2022/10/08 17:42:20;;;;;;;12.25;5.37;;;;;;;18.13;51.84;100144.75;7605608;32;37117;-74
2022/10/08 17:46:44;;;;;;;12.15;6.03;;;;;;;18.17;52.09;100137.47;7605615;32;39040;-74
2022/10/08 17:51:02;;;;;;;16.35;6.55;;;;;;;17.96;53.17;100153.72;7605466;32;40052;-74
2022/10/08 17:55:18;;;;;;;13.30;6.93;;;;;;;17.79;53.87;100150.78;7605056;32;38802;-74
2022/10/08 17:59:34;;;;;;;12.82;5.72;;;;;;;17.56;54.81;100152.72;7605185;32;37319;-74
2022/10/08 18:03:55;;;;;;;13.15;6.10;;;;;;;17.21;55.68;100158.69;7605098;32;39531;-74
2022/10/08 18:08:12;;;;;;;12.52;5.32;;;;;;;17.10;56.09;100162.75;7605082;32;40856;-74
2022/10/08 18:12:28;;;;;;;14.87;6.20;;;;;;;17.15;56.10;100157.12;7605096;32;37599;-74
2022/10/08 18:16:45;;;;;;;21.23;6.10;;;;;;;17.12;56.08;100145.91;7605048;32;36849;-74
2022/10/08 18:21:04;;;;;;;12.10;7.15;;;;;;;17.21;55.72;100147.66;7605178;32;39074;-74
2022/10/08 18:25:20;;;;;;;14.25;7.25;;;;;;;16.25;58.78;100159.34;7604657;32;39992;-74
2022/10/08 18:29:36;;;;;;;15.25;6.97;;;;;;;16.40;58.06;100152.75;7605602;32;38740;-73
2022/10/08 18:33:58;;;;;;;14.45;7.32;;;;;;;16.61;57.16;100172.44;7606492;32;37093;-73
2022/10/08 18:38:14;;;;;;;16.20;6.50;;;;;;;16.57;57.25;100171.44;7607559;32;39341;-73
2022/10/08 18:42:32;;;;;;;19.05;7.05;;;;;;;16.62;56.88;100171.34;7606421;32;39979;-75
2022/10/08 18:46:49;;;;;;;12.13;6.50;;;;;;;16.64;56.78;100166.34;7607585;32;37043;-75
2022/10/08 18:51:11;;;;;;;16.33;6.35;;;;;;;16.27;57.85;100168.91;7607279;32;37092;-74
2022/10/08 18:55:27;;;;;;;9.18;6.03;;;;;;;16.59;56.86;100181.03;7607715;32;39990;-74
2022/10/08 18:59:43;;;;;;;12.75;6.55;;;;;;;16.20;58.32;100173.19;7618642;32;40043;-74
2022/10/08 19:04:00;;;;;;;12.35;6.28;;;;;;;16.30;57.95;100175.75;7607286;32;37998;-75
2022/10/08 19:08:16;;;;;;;10.32;5.80;;;;;;;16.35;57.75;100183.94;7607410;32;37656;-74
2022/10/08 19:12:33;;;;;;;10.82;6.93;;;;;;;16.30;57.95;100178.50;7606750;32;39079;-75
2022/10/08 19:16:49;;;;;;;14.18;7.47;;;;;;;16.34;57.50;100179.53;7607440;32;39609;-74
2022/10/08 19:21:07;;;;;;;13.90;7.20;;;;;;;16.23;57.85;100184.41;7606789;32;37926;-75
2022/10/08 19:25:25;;;;;;;14.85;6.90;;;;;;;16.10;58.23;100196.97;7607185;32;37282;-75
2022/10/08 19:29:42;;;;;;;19.75;7.10;;;;;;;16.60;56.43;100190.09;7607263;32;39528;-75
2022/10/08 19:34:01;;;;;;;13.25;7.18;;;;;;;16.25;57.45;100192.34;7607142;32;40602;-75
2022/10/08 19:38:17;;;;;;;14.85;6.70;;;;;;;15.97;58.19;100203.22;7606934;32;37121;-74
2022/10/08 19:42:33;;;;;;;16.62;6.30;;;;;;;16.11;57.66;100190.34;7606549;32;37310;-74
2022/10/08 19:46:49;;;;;;;13.73;6.37;;;;;;;16.06;57.67;100198.69;7606831;32;40253;-74
2022/10/08 19:51:10;;;;;;;10.73;6.32;;;;;;;16.11;57.88;100211.53;7581063;33;40957;-72
2022/10/08 19:55:26;;;;;;;13.10;6.62;;;;;;;16.19;57.38;100210.03;7606564;32;38765;-73